Flight Track Log - Related Links

Times and Time Zones

All times are in EDT time to prevent confusion due to time zone crossing. See the CSJ405 flight status page for this flight to view local times or setup timezone preferences in your user account.

Time Position Orientation Groundspeed Altitude Reporting Facility
EDT Latitude Longitude Course Direction KTS MPH feet Rate Location/Type
Thu 10:04:22 PM 43.1419 -77.6411 37° Northeast 112 129 2,000  Level Cleveland Center
Thu 10:05:22 PM 43.1533 -77.6833 290° West 121 139 2,900 942 Climbing Cleveland Center
Thu 10:06:23 PM 43.1567 -77.7286 276° West 123 142 3,900 541 Climbing Cleveland Center
Thu 10:07:24 PM 43.1558 -77.7856 269° West 161 185 4,000 50 Climbing Cleveland Center
Thu 10:08:24 PM 43.1617 -77.8508 277° West 176 203 4,000  Level Cleveland Center
Thu 10:09:56 PM 43.1500 -77.9167 256° West 180 207 4,000  Level Toronto Center
Thu 10:10:56 PM 43.1500 -77.9833 270° West 180 207 4,000  Level Toronto Center
Thu 10:11:56 PM 43.1500 -78.0500 270° West 180 207 4,000  Level Toronto Center
Thu 10:12:56 PM 43.1500 -78.1167 270° West 180 207 4,000  Level Toronto Center
Thu 10:13:56 PM 43.1500 -78.2000 270° West 180 207 4,000  Level Toronto Center
Thu 10:14:56 PM 43.1500 -78.2667 270° West 180 207 4,000  Level Toronto Center
Thu 10:15:56 PM 43.1500 -78.3333 270° West 180 207 4,000  Level Toronto Center
Thu 10:16:56 PM 43.1500 -78.4000 270° West 180 207 4,000  Level Toronto Center
Thu 10:17:56 PM 43.1500 -78.4667 270° West 180 207 4,000  Level Toronto Center
Thu 10:18:56 PM 43.1667 -78.5333 289° West 180 207 4,000  Level Toronto Center
Thu 10:19:56 PM 43.1667 -78.6000 270° West 180 207 4,000  Level Toronto Center
Thu 10:20:56 PM 43.1667 -78.6667 270° West 180 207 4,000  Level Toronto Center
Thu 10:21:56 PM 43.1667 -78.7500 270° West 170 196 4,000  Level Toronto Center
Thu 10:22:56 PM 43.1667 -78.8167 270° West 170 196 4,000  Level Toronto Center
Thu 10:23:56 PM 43.1667 -78.8833 270° West 170 196 4,000  Level Toronto Center
Thu 10:24:56 PM 43.1667 -78.9167 270° West 180 207 4,000  Level Toronto Center
Thu 10:25:56 PM 43.1667 -79.0000 270° West 170 196 4,000  Level Toronto Center
Thu 10:26:56 PM 43.1667 -79.0667 270° West 170 196 4,000  Level Toronto Center
Thu 10:27:56 PM 43.1667 -79.1333 270° West 170 196 4,000  Level Toronto Center
Thu 10:28:56 PM 43.1667 -79.2000 270° West 170 196 4,000  Level Toronto Center
Thu 10:29:56 PM 43.1667 -79.2667 270° West 170 196 4,000  Level Toronto Center
Thu 10:30:56 PM 43.1667 -79.3333 270° West 170 196 4,000 -50 Level Toronto Center
Thu 10:31:56 PM 43.1667 -79.4000 270° West 170 196 3,900  Descending Toronto Center
Thu 10:32:56 PM 43.1667 -79.4500 270° West 170 196 4,000 -100 Climbing Toronto Center
Thu 10:33:56 PM 43.1667 -79.5167 270° West 180 207 3,700 -500 Descending Toronto Center
Thu 10:34:56 PM 43.1667 -79.6167 270° West 190 219 3,000 -450 Descending Toronto Center
Thu 10:35:56 PM 43.1667 -79.6833 270° West 190 219 2,800 -200 Descending Toronto Center
Thu 10:36:56 PM 43.1833 -79.7500 289° West 190 219 2,600 -350 Descending Toronto Center
Thu 10:37:56 PM 43.1833 -79.8167 270° West 190 219 2,100 -650 Descending Toronto Center
Thu 10:38:56 PM 43.1833 -79.8833 270° West 180 207 1,300 -650 Descending Toronto Center
Thu 10:39:56 PM 43.1667 -79.9000 216° Southwest 80 92 800 -250 Descending Toronto Center
Thu 10:40:56 PM 43.1500 -79.9000 180° South 40 46 800  Level Toronto Center

Login

Don't have an account? Register now (free) for customized features, flight alerts, and more!